Time;durP1;ratioP1;P1;durP2;ratioP2;P2;SDS_P1;SDS_P2;PMS_P1;PMS_P2;Temp;Humidity;BMP_temperature;BMP_pressure;BME280_temperature;BME280_humidity;BME280_pressure;Samples;Min_cycle;Max_cycle;Signal;HPM_P1;HPM_P2
2022/10/18 00:00:54;;;;;;;1999.90;999.90;;;12.80;99.90;;;;;;5108834;27;20040;-65
2022/10/18 00:03:19;;;;;;;1999.90;999.90;;;12.70;99.90;;;;;;5093318;27;20046;-65
2022/10/18 00:05:47;;;;;;;1999.90;999.90;;;12.70;99.90;;;;;;5088963;28;20508;-66
2022/10/18 00:08:13;;;;;;;1999.90;999.90;;;12.70;99.90;;;;;;5108603;27;20829;-65
2022/10/18 00:10:38;;;;;;;1999.90;999.90;;;12.60;99.90;;;;;;5106608;27;20036;-65
2022/10/18 00:13:04;;;;;;;1999.90;999.90;;;12.60;99.90;;;;;;5107621;27;20114;-65
2022/10/18 00:15:30;;;;;;;1999.90;999.90;;;12.50;99.90;;;;;;5107244;28;20074;-65
2022/10/18 00:17:55;;;;;;;1999.90;999.90;;;12.50;99.90;;;;;;5101690;27;20031;-65
2022/10/18 00:20:21;;;;;;;1999.90;999.90;;;12.40;99.90;;;;;;5086759;28;20130;-65
2022/10/18 00:22:46;;;;;;;1999.90;999.90;;;12.40;99.90;;;;;;5070035;28;20048;-65
2022/10/18 00:25:12;;;;;;;1999.90;999.90;;;12.40;99.90;;;;;;5072014;28;20051;-65
2022/10/18 00:27:38;;;;;;;1999.90;999.90;;;12.30;99.90;;;;;;5088777;28;20126;-65
2022/10/18 00:30:04;;;;;;;1999.90;999.90;;;12.30;99.90;;;;;;5072873;28;20036;-65
2022/10/18 00:32:30;;;;;;;1999.90;999.90;;;12.30;99.90;;;;;;5088035;28;20416;-65
2022/10/18 00:34:55;;;;;;;1999.90;999.90;;;12.30;99.90;;;;;;5088692;28;20046;-66
2022/10/18 00:37:21;;;;;;;1999.90;999.90;;;12.30;99.90;;;;;;5104474;28;20044;-65
2022/10/18 00:39:46;;;;;;;1999.90;999.90;;;12.30;99.90;;;;;;5106594;27;20484;-65
2022/10/18 00:42:19;;;;;;;1999.90;999.90;;;12.30;99.90;;;;;;5089286;28;20039;-66
2022/10/18 00:44:45;;;;;;;1999.90;999.90;;;12.30;99.90;;;;;;5106335;27;20089;-66
2022/10/18 00:47:14;;;;;;;1999.90;999.90;;;12.30;99.90;;;;;;5105144;28;20090;-65
2022/10/18 00:49:44;;;;;;;1999.90;999.90;;;12.40;99.90;;;;;;5088056;28;20051;-66
2022/10/18 00:52:15;;;;;;;1999.90;999.90;;;12.40;99.90;;;;;;5086836;28;20105;-65
2022/10/18 00:54:43;;;;;;;1999.90;999.90;;;12.30;99.90;;;;;;5087346;28;20043;-65
2022/10/18 00:57:09;;;;;;;1999.90;999.90;;;12.30;99.90;;;;;;5108245;27;20106;-66
2022/10/18 00:59:35;;;;;;;1999.90;999.90;;;12.20;99.90;;;;;;5103249;27;20070;-66
2022/10/18 01:02:01;;;;;;;1999.90;999.90;;;12.20;99.90;;;;;;5086474;28;20046;-65
2022/10/18 01:04:27;;;;;;;1999.90;999.90;;;12.10;99.90;;;;;;5086410;28;20051;-65
2022/10/18 01:07:24;;;;;;;1999.90;999.90;;;12.10;99.90;;;;;;5087228;28;20043;-65
2022/10/18 01:09:59;;;;;;;1999.90;999.90;;;12.10;99.90;;;;;;5054949;28;20101;-65
2022/10/18 01:12:59;;;;;;;1999.90;999.90;;;12.00;99.90;;;;;;5082812;28;20502;-65
2022/10/18 01:15:27;;;;;;;1999.90;999.90;;;11.90;99.90;;;;;;5099885;27;20085;-65
2022/10/18 01:18:29;;;;;;;1999.90;999.90;;;11.80;99.90;;;;;;5082636;28;20047;-66
2022/10/18 01:21:21;;;;;;;1999.90;999.90;;;11.80;99.90;;;;;;5078313;28;20047;-66
2022/10/18 01:24:02;;;;;;;1999.90;999.90;;;11.70;99.90;;;;;;5087639;28;20557;-65
2022/10/18 01:26:56;;;;;;;1999.90;999.90;;;11.70;99.90;;;;;;5105553;27;20568;-66
2022/10/18 01:29:30;;;;;;;1999.90;999.90;;;11.70;99.90;;;;;;5103613;28;20461;-65
2022/10/18 01:32:00;;;;;;;1999.90;999.90;;;11.80;99.90;;;;;;5087596;28;20137;-65
2022/10/18 01:34:28;;;;;;;1999.90;999.90;;;11.80;99.90;;;;;;5089505;28;20093;-66
2022/10/18 01:36:56;;;;;;;1999.90;999.90;;;11.90;99.90;;;;;;5103878;28;20465;-65
2022/10/18 01:39:28;;;;;;;1999.90;999.90;;;12.00;99.90;;;;;;5070185;28;20353;-66
2022/10/18 01:41:56;;;;;;;1999.90;999.90;;;12.00;99.90;;;;;;5086974;28;20047;-66
2022/10/18 01:44:25;;;;;;;1999.90;999.90;;;12.10;99.90;;;;;;5101061;27;20056;-65
2022/10/18 01:46:53;;;;;;;1999.90;999.90;;;12.10;99.90;;;;;;5086313;28;20445;-65
2022/10/18 01:49:18;;;;;;;1999.90;999.90;;;12.20;99.90;;;;;;5102832;28;20439;-65
2022/10/18 01:51:44;;;;;;;1999.90;999.90;;;12.30;99.90;;;;;;5068953;28;20039;-65
2022/10/18 01:54:15;;;;;;;1999.90;999.90;;;12.30;99.90;;;;;;5087794;28;20084;-66
2022/10/18 01:56:52;;;;;;;1999.90;999.90;;;12.30;99.90;;;;;;5105988;27;20109;-65
2022/10/18 01:59:33;;;;;;;1999.90;999.90;;;12.40;99.90;;;;;;5110368;28;20054;-65
2022/10/18 02:02:17;;;;;;;1999.90;999.90;;;12.50;99.90;;;;;;5114456;27;20433;-65
2022/10/18 02:05:00;;;;;;;1999.90;999.90;;;12.60;99.90;;;;;;5111607;27;20051;-65
2022/10/18 02:07:38;;;;;;;1999.90;999.90;;;12.60;99.90;;;;;;5091435;28;20071;-66
2022/10/18 02:10:12;;;;;;;1999.90;999.90;;;12.70;99.90;;;;;;5112538;27;20392;-65
2022/10/18 02:12:42;;;;;;;1999.90;999.90;;;12.70;99.90;;;;;;5108499;27;20031;-66
2022/10/18 02:15:10;;;;;;;1999.90;999.90;;;12.70;99.90;;;;;;5112036;27;20479;-66
2022/10/18 02:17:36;;;;;;;1999.90;999.90;;;12.80;99.90;;;;;;5094471;27;20043;-65
2022/10/18 02:20:06;;;;;;;1999.90;999.90;;;12.80;99.90;;;;;;5075036;28;20044;-66
2022/10/18 02:22:33;;;;;;;1999.90;999.90;;;12.80;99.90;;;;;;5092262;27;20067;-65
2022/10/18 02:25:02;;;;;;;1999.90;999.90;;;12.80;99.90;;;;;;5110024;27;20362;-65
2022/10/18 02:27:28;;;;;;;1999.90;999.90;;;12.80;99.90;;;;;;5109652;28;20198;-65
2022/10/18 02:29:53;;;;;;;1999.90;999.90;;;12.80;99.90;;;;;;5094104;28;20114;-65
2022/10/18 02:32:31;;;;;;;1999.90;999.90;;;12.80;99.90;;;;;;5075335;28;20152;-65
2022/10/18 02:35:06;;;;;;;1999.90;999.90;;;12.90;99.90;;;;;;5094494;28;20043;-66
2022/10/18 02:37:37;;;;;;;1999.90;999.90;;;12.80;99.90;;;;;;5112625;27;20430;-66
2022/10/18 02:40:06;;;;;;;1999.90;999.90;;;12.80;99.90;;;;;;5113144;27;20041;-65
2022/10/18 02:42:45;;;;;;;1999.90;999.90;;;12.80;99.90;;;;;;5092168;28;20401;-66
2022/10/18 02:45:12;;;;;;;1999.90;999.90;;;12.80;99.90;;;;;;5111194;27;20138;-65
2022/10/18 02:47:37;;;;;;;1999.90;999.90;;;12.80;99.90;;;;;;5097741;27;20091;-66
2022/10/18 02:50:03;;;;;;;1999.90;999.90;;;12.80;99.90;;;;;;5092601;28;20035;-66
2022/10/18 02:52:29;;;;;;;1999.90;999.90;;;12.80;99.90;;;;;;5093457;27;20043;-66
2022/10/18 02:54:54;;;;;;;1999.90;999.90;;;12.80;99.90;;;;;;5111018;27;20042;-65
2022/10/18 02:57:20;;;;;;;1999.90;999.90;;;12.80;99.90;;;;;;5109185;27;20127;-66
2022/10/18 02:59:45;;;;;;;1999.90;999.90;;;12.80;99.90;;;;;;5111337;27;20043;-65
2022/10/18 03:02:11;;;;;;;1999.90;999.90;;;12.80;99.90;;;;;;5113490;27;20055;-66
2022/10/18 03:04:36;;;;;;;1999.90;999.90;;;12.70;99.90;;;;;;5107237;27;20507;-66
2022/10/18 03:07:02;;;;;;;1999.90;999.90;;;12.70;99.90;;;;;;5109981;27;20045;-66
2022/10/18 03:09:28;;;;;;;1999.90;999.90;;;12.70;99.90;;;;;;5104965;27;20039;-65
2022/10/18 03:11:53;;;;;;;1999.90;999.90;;;12.70;99.90;;;;;;5086866;28;20073;-66
2022/10/18 03:14:19;;;;;;;1999.90;999.90;;;12.70;99.90;;;;;;5108359;28;20039;-66
2022/10/18 03:16:44;;;;;;;1999.90;999.90;;;12.70;99.90;;;;;;5072756;28;20040;-65
2022/10/18 03:19:10;;;;;;;1999.90;999.90;;;12.70;99.90;;;;;;5108510;27;20074;-65
2022/10/18 03:21:35;;;;;;;1999.90;999.90;;;12.70;99.90;;;;;;5090380;28;20694;-65
2022/10/18 03:24:01;;;;;;;1999.90;999.90;;;12.70;99.90;;;;;;5106949;27;20032;-66
2022/10/18 03:26:27;;;;;;;1999.90;999.90;;;12.70;99.90;;;;;;5104644;27;20036;-66
2022/10/18 03:28:52;;;;;;;1999.90;999.90;;;12.60;99.90;;;;;;5088106;28;20050;-65
2022/10/18 03:31:18;;;;;;;1999.90;999.90;;;12.60;99.90;;;;;;5072221;28;20781;-65
2022/10/18 03:33:45;;;;;;;1999.90;999.90;;;12.60;99.90;;;;;;5105147;27;20036;-65
2022/10/18 03:36:11;;;;;;;1999.90;999.90;;;12.60;99.90;;;;;;5108715;28;20044;-65
2022/10/18 03:38:36;;;;;;;1999.90;999.90;;;12.60;99.90;;;;;;5107328;27;20403;-66
2022/10/18 03:41:02;;;;;;;1999.90;999.90;;;12.60;99.90;;;;;;5100793;27;20048;-65
2022/10/18 03:43:27;;;;;;;1999.90;999.90;;;12.60;99.90;;;;;;5084895;28;20066;-66
2022/10/18 03:45:53;;;;;;;1999.90;999.90;;;12.50;99.90;;;;;;5090760;27;20298;-66
2022/10/18 03:48:18;;;;;;;1999.90;999.90;;;12.50;99.90;;;;;;5071440;28;20050;-65
2022/10/18 03:50:44;;;;;;;1999.90;999.90;;;12.50;99.90;;;;;;5089280;27;20044;-65
2022/10/18 03:53:10;;;;;;;1999.90;999.90;;;12.50;99.90;;;;;;5108232;27;20182;-65
2022/10/18 03:55:36;;;;;;;1999.90;999.90;;;12.50;99.90;;;;;;5087899;28;20051;-65
2022/10/18 03:58:02;;;;;;;1999.90;999.90;;;12.50;99.90;;;;;;5108080;28;20517;-66
2022/10/18 04:00:28;;;;;;;1999.90;999.90;;;12.50;99.90;;;;;;5104656;27;20508;-65
2022/10/18 04:02:53;;;;;;;1999.90;999.90;;;12.50;99.90;;;;;;5107117;28;20461;-65
2022/10/18 04:05:19;;;;;;;1999.90;999.90;;;12.50;99.90;;;;;;5106074;27;20043;-66
2022/10/18 04:07:45;;;;;;;1999.90;999.90;;;12.40;99.90;;;;;;5106970;28;20035;-66
2022/10/18 04:10:10;;;;;;;1999.90;999.90;;;12.40;99.90;;;;;;5101595;28;20032;-66
2022/10/18 04:12:36;;;;;;;1999.90;999.90;;;12.40;99.90;;;;;;5088218;27;20167;-65
2022/10/18 04:15:02;;;;;;;1999.90;999.90;;;12.40;99.90;;;;;;5088567;28;20071;-65
2022/10/18 04:17:27;;;;;;;1999.90;999.90;;;12.40;99.90;;;;;;5106469;28;20423;-65
2022/10/18 04:19:53;;;;;;;1999.90;999.90;;;12.40;99.90;;;;;;5089900;28;20107;-65
2022/10/18 04:22:18;;;;;;;1999.90;999.90;;;12.40;99.90;;;;;;5087359;27;20058;-65
2022/10/18 04:24:44;;;;;;;1999.90;999.90;;;12.30;99.90;;;;;;5106032;28;20131;-65
2022/10/18 04:27:10;;;;;;;1999.90;999.90;;;12.30;99.90;;;;;;5087039;28;20055;-65
2022/10/18 04:29:35;;;;;;;1999.90;999.90;;;12.30;99.90;;;;;;5089740;28;20122;-65
2022/10/18 04:32:01;;;;;;;1999.90;999.90;;;12.30;99.90;;;;;;5088447;28;20067;-65
2022/10/18 04:34:27;;;;;;;1999.90;999.90;;;12.30;99.90;;;;;;5087436;27;20045;-65
2022/10/18 04:36:53;;;;;;;1999.90;999.90;;;12.30;99.90;;;;;;5085731;28;20040;-65
2022/10/18 04:39:19;;;;;;;1999.90;999.90;;;12.30;99.90;;;;;;5107023;27;20550;-65
2022/10/18 04:41:44;;;;;;;1999.90;999.90;;;12.20;99.90;;;;;;5073878;28;20039;-66
2022/10/18 04:44:10;;;;;;;1999.90;999.90;;;12.20;99.90;;;;;;5086639;28;20060;-66
2022/10/18 04:46:35;;;;;;;1999.90;999.90;;;12.20;99.90;;;;;;5088961;28;20047;-66
2022/10/18 04:49:01;;;;;;;1999.90;999.90;;;12.10;99.90;;;;;;5088024;28;20067;-66
2022/10/18 04:51:28;;;;;;;1999.90;999.90;;;12.10;99.90;;;;;;5102751;28;20649;-66
2022/10/18 04:53:54;;;;;;;1999.90;999.90;;;12.10;99.90;;;;;;5072629;28;20040;-66
2022/10/18 04:56:20;;;;;;;1999.90;999.90;;;12.00;99.90;;;;;;5106628;28;20033;-65
2022/10/18 04:58:45;;;;;;;1999.90;999.90;;;12.10;99.90;;;;;;5100776;27;20052;-65
2022/10/18 05:01:11;;;;;;;1999.90;999.90;;;12.00;99.90;;;;;;5087871;28;20042;-65
2022/10/18 05:03:37;;;;;;;1999.90;999.90;;;12.00;99.90;;;;;;5087634;28;20564;-66
2022/10/18 05:06:04;;;;;;;1999.90;999.90;;;12.00;99.90;;;;;;5088847;28;20053;-65
2022/10/18 05:08:32;;;;;;;1999.90;999.90;;;11.90;99.90;;;;;;5102637;27;20430;-65
2022/10/18 05:10:58;;;;;;;1999.90;999.90;;;11.90;99.90;;;;;;5104292;27;20051;-65
2022/10/18 05:13:24;;;;;;;1999.90;999.90;;;11.80;99.90;;;;;;5072143;28;20043;-66
2022/10/18 05:15:50;;;;;;;1999.90;999.90;;;11.80;99.90;;;;;;5085586;28;20040;-66
2022/10/18 05:18:15;;;;;;;1999.90;999.90;;;11.80;99.90;;;;;;5085935;28;20040;-65
2022/10/18 05:20:41;;;;;;;1999.90;999.90;;;11.70;99.90;;;;;;5070233;28;20046;-66
2022/10/18 05:23:09;;;;;;;1999.90;999.90;;;11.70;99.90;;;;;;5101858;28;20450;-65
2022/10/18 05:25:41;;;;;;;1999.90;999.90;;;11.70;99.90;;;;;;5087753;28;20131;-65
2022/10/18 05:28:07;;;;;;;1999.90;999.90;;;11.60;99.90;;;;;;5087785;28;20040;-66
2022/10/18 05:30:36;;;;;;;1999.90;999.90;;;11.60;99.90;;;;;;5084720;28;20096;-65
2022/10/18 05:33:01;;;;;;;1999.90;999.90;;;11.60;99.90;;;;;;5086202;28;20481;-66
2022/10/18 05:35:27;;;;;;;1999.90;999.90;;;11.50;99.90;;;;;;5102161;27;20031;-66
2022/10/18 05:37:52;;;;;;;1999.90;999.90;;;11.50;99.90;;;;;;5086534;28;20080;-66
2022/10/18 05:40:18;;;;;;;1999.90;999.90;;;11.50;99.90;;;;;;5070425;28;20039;-66
2022/10/18 05:42:43;;;;;;;1999.90;999.90;;;11.50;99.90;;;;;;5088111;27;20043;-65
2022/10/18 05:45:09;;;;;;;1999.90;999.90;;;11.40;99.90;;;;;;5072468;28;20056;-65
2022/10/18 05:47:35;;;;;;;1999.90;999.90;;;11.30;99.90;;;;;;5085692;28;20048;-65
2022/10/18 05:50:00;;;;;;;1999.90;999.90;;;11.30;99.90;;;;;;5106554;27;20043;-66
2022/10/18 05:52:26;;;;;;;1999.90;999.90;;;11.20;99.90;;;;;;5086560;28;20075;-65
2022/10/18 05:54:51;;;;;;;1999.90;999.90;;;11.20;99.90;;;;;;5065773;28;20417;-66
2022/10/18 05:57:17;;;;;;;1999.90;999.90;;;11.10;99.90;;;;;;5083703;28;20043;-65
2022/10/18 05:59:43;;;;;;;1999.90;999.90;;;11.10;99.90;;;;;;5087988;28;20477;-65
2022/10/18 06:02:12;;;;;;;1999.90;999.90;;;11.00;99.90;;;;;;5084489;28;20048;-65
2022/10/18 06:04:38;;;;;;;1999.90;999.90;;;11.00;99.90;;;;;;5086180;28;20065;-66
2022/10/18 06:07:08;;;;;;;1999.90;999.90;;;10.90;99.90;;;;;;5087721;28;20043;-66
2022/10/18 06:09:33;;;;;;;1999.90;999.90;;;10.90;99.90;;;;;;5106524;28;20036;-65
2022/10/18 06:11:59;;;;;;;1999.90;999.90;;;10.80;99.90;;;;;;5087452;28;20104;-65
2022/10/18 06:14:24;;;;;;;1999.90;999.90;;;10.80;99.90;;;;;;5083637;28;20193;-65
2022/10/18 06:16:50;;;;;;;1999.90;999.90;;;10.70;99.90;;;;;;5103280;28;20032;-65
2022/10/18 06:19:16;;;;;;;1999.90;999.90;;;10.70;99.90;;;;;;5102830;28;20059;-66
2022/10/18 06:21:42;;;;;;;1999.90;999.90;;;10.70;99.90;;;;;;5081948;28;20054;-65
2022/10/18 06:24:08;;;;;;;1999.90;999.90;;;10.70;99.90;;;;;;5104353;28;20043;-65
2022/10/18 06:26:33;;;;;;;1999.90;999.90;;;10.60;99.90;;;;;;5096673;28;20028;-65
2022/10/18 06:28:59;;;;;;;1999.90;999.90;;;10.60;99.90;;;;;;5087629;28;20047;-66
2022/10/18 06:31:25;;;;;;;1999.90;999.90;;;10.60;99.90;;;;;;5083530;28;20055;-65
2022/10/18 06:33:50;;;;;;;1999.90;999.90;;;10.60;99.90;;;;;;5092157;28;20035;-66
2022/10/18 06:36:20;;;;;;;1999.90;999.90;;;10.60;99.90;;;;;;5101658;28;20687;-65
2022/10/18 06:38:46;;;;;;;1999.90;999.90;;;10.60;99.90;;;;;;5088241;28;20075;-65
2022/10/18 06:41:12;;;;;;;1999.90;999.90;;;10.60;99.90;;;;;;5085398;28;20082;-66
2022/10/18 06:43:38;;;;;;;1999.90;999.90;;;10.50;99.90;;;;;;5104880;28;20061;-66
2022/10/18 06:46:06;;;;;;;1999.90;999.90;;;10.50;99.90;;;;;;5103823;28;20509;-65
2022/10/18 06:48:33;;;;;;;1999.90;999.90;;;10.40;99.90;;;;;;5110274;27;20043;-66
2022/10/18 06:51:02;;;;;;;1999.90;999.90;;;10.40;99.90;;;;;;5106328;28;20042;-65
2022/10/18 06:53:34;;;;;;;1999.90;999.90;;;10.40;99.90;;;;;;5087755;28;20862;-65
2022/10/18 06:56:02;;;;;;;1999.90;999.90;;;10.40;99.90;;;;;;5103808;27;20039;-65
2022/10/18 06:58:29;;;;;;;1999.90;999.90;;;10.40;99.90;;;;;;5086599;28;20502;-65
2022/10/18 07:00:55;;;;;;;1999.90;999.90;;;10.40;99.90;;;;;;5102856;28;20049;-66
2022/10/18 07:03:21;;;;;;;1999.90;999.90;;;10.50;99.90;;;;;;5106741;28;20130;-65
2022/10/18 07:05:50;;;;;;;1999.90;999.90;;;10.50;99.90;;;;;;5109573;28;20043;-65
2022/10/18 07:08:16;;;;;;;1999.90;999.90;;;10.50;99.90;;;;;;5106250;28;20452;-65
2022/10/18 07:10:42;;;;;;;1999.90;999.90;;;10.50;99.90;;;;;;5101316;27;20596;-65
2022/10/18 07:13:07;;;;;;;1999.90;999.90;;;10.50;99.90;;;;;;5103660;28;20070;-65
2022/10/18 07:15:37;;;;;;;1999.90;999.90;;;10.50;99.90;;;;;;5072520;28;20104;-65
2022/10/18 07:18:03;;;;;;;1999.90;999.90;;;10.50;99.90;;;;;;5100007;27;20044;-65
2022/10/18 07:20:28;;;;;;;1999.90;999.90;;;10.60;99.90;;;;;;5108166;27;20430;-65
2022/10/18 07:22:57;;;;;;;1999.90;999.90;;;10.60;99.90;;;;;;5076224;28;20123;-66
2022/10/18 07:25:22;;;;;;;1999.90;999.90;;;10.60;99.90;;;;;;5085579;28;20047;-65
2022/10/18 07:27:48;;;;;;;1999.90;999.90;;;10.60;99.90;;;;;;5102887;28;20096;-66
2022/10/18 07:30:13;;;;;;;1999.90;999.90;;;10.60;99.90;;;;;;5095381;28;20044;-65
2022/10/18 07:32:39;;;;;;;1999.90;999.90;;;10.70;99.90;;;;;;5106135;27;20087;-65
2022/10/18 07:35:05;;;;;;;1999.90;999.90;;;10.70;99.90;;;;;;5087796;28;20066;-66
2022/10/18 07:37:31;;;;;;;1999.90;999.90;;;10.80;99.90;;;;;;5104226;28;20043;-65
2022/10/18 07:39:56;;;;;;;1999.90;999.90;;;10.90;99.90;;;;;;5108035;28;20536;-66
2022/10/18 07:42:22;;;;;;;1999.90;999.90;;;10.90;99.90;;;;;;5104255;27;20043;-66
2022/10/18 07:44:47;;;;;;;1999.90;999.90;;;11.00;99.90;;;;;;5103835;28;20087;-65
2022/10/18 07:47:14;;;;;;;1999.90;999.90;;;11.00;99.90;;;;;;5103487;28;20040;-66
2022/10/18 07:49:39;;;;;;;1999.90;999.90;;;11.10;99.90;;;;;;5107194;28;20118;-65
2022/10/18 07:52:05;;;;;;;1999.90;999.90;;;11.10;99.90;;;;;;5105819;28;20560;-65
2022/10/18 07:54:30;;;;;;;1999.90;999.90;;;11.10;99.90;;;;;;5105886;28;20035;-66
2022/10/18 07:56:56;;;;;;;1999.90;999.90;;;11.20;99.90;;;;;;5105573;27;20068;-66
2022/10/18 07:59:22;;;;;;;1999.90;999.90;;;11.30;99.90;;;;;;5095021;28;20039;-65
2022/10/18 08:01:47;;;;;;;1999.90;999.90;;;11.40;99.90;;;;;;5108134;28;20142;-65
2022/10/18 08:04:13;;;;;;;1999.90;999.90;;;11.50;99.90;;;;;;5105187;28;20034;-66
2022/10/18 08:06:38;;;;;;;1999.90;999.90;;;11.60;99.90;;;;;;5089092;28;20044;-65
2022/10/18 08:09:04;;;;;;;1999.90;999.90;;;11.70;99.90;;;;;;5106423;27;20031;-65
2022/10/18 08:11:30;;;;;;;1999.90;999.90;;;11.80;99.90;;;;;;5100542;27;20122;-66
2022/10/18 08:13:55;;;;;;;1999.90;999.90;;;11.90;99.90;;;;;;5104202;28;20092;-66
2022/10/18 08:16:23;;;;;;;1999.90;999.90;;;12.00;99.90;;;;;;5085586;28;20044;-65
2022/10/18 08:18:50;;;;;;;1999.90;999.90;;;12.30;99.90;;;;;;5085877;28;20165;-66
2022/10/18 08:21:17;;;;;;;1999.90;999.90;;;12.70;99.90;;;;;;5103288;28;20040;-65
2022/10/18 08:23:43;;;;;;;1999.90;999.90;;;13.00;99.90;;;;;;5072001;28;20043;-66
2022/10/18 08:26:15;;;;;;;1999.90;999.90;;;13.30;99.90;;;;;;5086983;28;20391;-66
2022/10/18 08:28:41;;;;;;;1999.90;999.90;;;13.80;99.90;;;;;;5090083;28;20050;-65
2022/10/18 08:31:11;;;;;;;1999.90;999.90;;;14.00;99.90;;;;;;5122466;27;20040;-65
2022/10/18 08:33:38;;;;;;;1999.90;999.90;;;14.50;99.90;;;;;;5105239;27;20057;-66
2022/10/18 08:36:06;;;;;;;1999.90;999.90;;;15.20;99.90;;;;;;5095488;27;20042;-66
2022/10/18 08:38:36;;;;;;;1999.90;999.90;;;15.80;99.90;;;;;;5101666;28;20043;-66
2022/10/18 08:41:22;;;;;;;1999.90;999.90;;;16.30;99.90;;;;;;5091902;28;20114;-66
2022/10/18 08:44:02;;;;;;;1999.90;999.90;;;16.70;99.90;;;;;;5078105;28;20047;-66
2022/10/18 08:46:29;;;;;;;1999.90;999.90;;;16.90;99.90;;;;;;5092964;28;20039;-66
2022/10/18 08:48:56;;;;;;;1999.90;999.90;;;17.30;99.90;;;;;;5104275;27;20436;-66
2022/10/18 08:51:29;;;;;;;1999.90;999.90;;;17.70;99.90;;;;;;5102236;28;20054;-66
2022/10/18 08:54:03;;;;;;;1999.90;999.90;;;18.10;99.90;;;;;;5098815;28;20158;-66
2022/10/18 08:56:29;;;;;;;1999.90;999.90;;;18.40;99.90;;;;;;5083410;27;20374;-66
2022/10/18 08:58:55;;;;;;;1999.90;999.90;;;18.50;99.90;;;;;;5093718;28;20091;-67
2022/10/18 09:01:55;;;;;;;1999.90;999.90;;;18.70;99.90;;;;;;5075347;28;20039;-67
2022/10/18 09:04:50;;;;;;;1999.90;999.90;;;18.60;99.90;;;;;;5113021;27;20143;-66
2022/10/18 09:07:43;;;;;;;1999.90;999.90;;;18.70;99.90;;;;;;5091365;28;20050;-66
2022/10/18 09:10:26;;;;;;;1999.90;999.90;;;18.80;99.90;;;;;;5089822;27;20035;-66
2022/10/18 09:13:18;;;;;;;1999.90;999.90;;;18.60;99.90;;;;;;5095864;27;20438;-66
2022/10/18 09:16:03;;;;;;;1999.90;999.90;;;18.60;99.90;;;;;;5087423;28;20136;-67
2022/10/18 09:18:46;;;;;;;1999.90;999.90;;;18.70;99.90;;;;;;5082436;28;20040;-67
2022/10/18 09:21:19;;;;;;;1999.90;999.90;;;18.80;99.90;;;;;;5087015;28;20055;-66
2022/10/18 09:23:57;;;;;;;1999.90;999.90;;;18.60;99.90;;;;;;5100710;28;20035;-66
2022/10/18 09:26:24;;;;;;;1999.90;999.90;;;18.60;99.90;;;;;;5106722;27;20031;-66
2022/10/18 09:28:52;;;;;;;1999.90;999.90;;;18.60;99.90;;;;;;5103641;27;20042;-66
2022/10/18 09:31:22;;;;;;;1999.90;999.90;;;18.80;99.90;;;;;;5091759;28;20067;-67
2022/10/18 09:33:57;;;;;;;1999.90;999.90;;;18.80;99.90;;;;;;5104868;28;20042;-67
2022/10/18 09:36:26;;;;;;;1999.90;999.90;;;18.80;99.90;;;;;;5098618;27;20048;-66
2022/10/18 09:38:57;;;;;;;1999.90;999.90;;;18.60;99.90;;;;;;5085461;28;20089;-66
2022/10/18 09:41:33;;;;;;;1999.90;999.90;;;18.60;99.90;;;;;;5101160;28;20043;-67
2022/10/18 09:44:05;;;;;;;1999.90;999.90;;;18.30;99.90;;;;;;5087337;28;20052;-66
2022/10/18 09:46:36;;;;;;;1999.90;999.90;;;18.20;99.90;;;;;;5088415;28;20055;-66
2022/10/18 09:49:22;;;;;;;1999.90;999.90;;;18.20;99.90;;;;;;5079428;28;20040;-66
2022/10/18 09:51:50;;;;;;;1999.90;999.90;;;18.10;99.90;;;;;;5063994;28;20505;-66
2022/10/18 09:54:21;;;;;;;1999.90;999.90;;;18.00;99.90;;;;;;5079437;28;20051;-66
2022/10/18 09:56:56;;;;;;;1999.90;999.90;;;17.80;99.90;;;;;;5068370;28;20070;-67
2022/10/18 09:59:41;;;;;;;1999.90;999.90;;;17.60;99.90;;;;;;5079224;28;20122;-66
2022/10/18 10:02:16;;;;;;;1999.90;999.90;;;17.50;99.90;;;;;;5080815;28;20493;-66
2022/10/18 10:04:42;;;;;;;1999.90;999.90;;;17.60;99.90;;;;;;5083267;28;20102;-66
2022/10/18 10:07:12;;;;;;;1999.90;999.90;;;17.60;99.90;;;;;;5082860;28;20044;-68
2022/10/18 10:09:54;;;;;;;1999.90;999.90;;;17.60;99.90;;;;;;5083991;28;20036;-66
2022/10/18 10:12:30;;;;;;;1999.90;999.90;;;17.50;99.90;;;;;;5087359;28;20039;-66
2022/10/18 10:15:19;;;;;;;1999.90;999.90;;;17.50;99.90;;;;;;5086145;28;20040;-67
2022/10/18 10:18:05;;;;;;;1999.90;999.90;;;17.50;99.90;;;;;;5090383;28;20044;-66
2022/10/18 10:20:45;;;;;;;1999.90;999.90;;;17.50;99.90;;;;;;5086538;28;20583;-66
2022/10/18 10:23:20;;;;;;;1999.90;999.90;;;17.50;99.90;;;;;;5090628;28;20052;-67
2022/10/18 10:25:52;;;;;;;1999.90;999.90;;;17.40;99.90;;;;;;5088954;28;20457;-66
2022/10/18 10:28:28;;;;;;;1999.90;999.90;;;17.30;99.90;;;;;;5087678;28;20040;-66
2022/10/18 10:31:14;;;;;;;1999.90;999.90;;;17.00;99.90;;;;;;5073247;28;20083;-67
2022/10/18 10:33:43;;;;;;;1999.90;999.90;;;16.90;99.90;;;;;;5085892;28;20056;-66
2022/10/18 10:36:18;;;;;;;1999.90;999.90;;;16.90;99.90;;;;;;5079839;28;20135;-68
2022/10/18 10:38:43;;;;;;;1999.90;999.90;;;16.90;99.90;;;;;;5085045;28;20047;-67
2022/10/18 10:41:20;;;;;;;1999.90;999.90;;;17.10;99.90;;;;;;5090014;28;20051;-66
2022/10/18 10:43:47;;;;;;;1999.90;999.90;;;17.10;99.90;;;;;;5080266;28;20056;-66
2022/10/18 10:46:19;;;;;;;1999.90;999.90;;;17.30;99.90;;;;;;5074180;28;20047;-66
2022/10/18 10:48:59;;;;;;;1999.90;999.90;;;17.30;99.90;;;;;;5079200;28;20122;-66
2022/10/18 10:51:35;;;;;;;1999.90;999.90;;;17.40;99.90;;;;;;5085155;28;20040;-66
2022/10/18 10:54:04;;;;;;;1999.90;999.90;;;17.20;99.90;;;;;;5082446;28;20040;-66
2022/10/18 10:56:34;;;;;;;1999.90;999.90;;;17.00;99.90;;;;;;5083688;28;20127;-66
2022/10/18 10:59:14;;;;;;;1999.90;999.90;;;16.80;99.90;;;;;;5080435;28;20044;-66
2022/10/18 11:01:40;;;;;;;1999.90;999.90;;;16.80;99.90;;;;;;5078262;28;20032;-66
2022/10/18 11:04:29;;;;;;;1999.90;999.90;;;17.00;99.90;;;;;;5069582;28;20051;-66
2022/10/18 11:07:11;;;;;;;1999.90;999.90;;;17.10;99.90;;;;;;5078359;28;20075;-66
2022/10/18 11:09:49;;;;;;;1999.90;999.90;;;17.40;99.90;;;;;;5076436;28;20051;-66
2022/10/18 11:12:31;;;;;;;1999.90;999.90;;;17.60;99.90;;;;;;5076695;28;20051;-66
2022/10/18 11:15:19;;;;;;;1999.90;999.90;;;17.80;99.90;;;;;;5082103;28;20046;-66
2022/10/18 11:17:47;;;;;;;1999.90;999.90;;;17.90;99.90;;;;;;5076505;28;20499;-66
2022/10/18 11:20:16;;;;;;;1999.90;999.90;;;18.00;99.90;;;;;;5089748;28;20135;-66
2022/10/18 11:23:02;;;;;;;1999.90;999.90;;;18.00;99.90;;;;;;5072629;28;20131;-66
2022/10/18 11:25:44;;;;;;;1999.90;999.90;;;18.10;99.90;;;;;;5076566;28;20063;-66
2022/10/18 11:28:22;;;;;;;1999.90;999.90;;;18.30;99.90;;;;;;5072237;28;20047;-66
2022/10/18 11:31:04;;;;;;;1999.90;999.90;;;18.50;99.90;;;;;;5073169;28;20068;-66
2022/10/18 11:33:51;;;;;;;1999.90;999.90;;;18.70;99.90;;;;;;5076795;28;20098;-66
2022/10/18 11:36:32;;;;;;;1999.90;999.90;;;18.80;99.90;;;;;;5089782;28;20397;-65
2022/10/18 11:39:21;;;;;;;1999.90;999.90;;;18.80;99.90;;;;;;5086388;28;20451;-66
2022/10/18 11:41:51;;;;;;;1999.90;999.90;;;18.90;99.90;;;;;;5084011;28;20044;-66
2022/10/18 11:44:36;;;;;;;1999.90;999.90;;;18.90;99.90;;;;;;5086373;28;20060;-65
2022/10/18 11:47:16;;;;;;;1999.90;999.90;;;19.00;99.90;;;;;;5101994;27;20125;-66
2022/10/18 11:50:05;;;;;;;1999.90;999.90;;;18.90;99.90;;;;;;5103287;27;20042;-66
2022/10/18 11:53:03;;;;;;;1999.90;999.90;;;18.60;99.90;;;;;;5081480;28;20146;-66
2022/10/18 11:55:43;;;;;;;1999.90;999.90;;;18.30;99.90;;;;;;5019836;28;20085;-66
2022/10/18 11:58:35;;;;;;;1999.90;999.90;;;18.00;99.90;;;;;;5008700;28;20448;-65
2022/10/18 12:01:11;;;;;;;1999.90;999.90;;;18.00;99.90;;;;;;5007398;28;20128;-66
2022/10/18 12:04:05;;;;;;;1999.90;999.90;;;18.10;99.90;;;;;;5024705;28;20447;-66
2022/10/18 12:06:37;;;;;;;1999.90;999.90;;;18.40;99.90;;;;;;5021256;28;20252;-66
2022/10/18 12:09:13;;;;;;;1999.90;999.90;;;18.50;99.90;;;;;;5006973;28;20049;-66
2022/10/18 12:11:46;;;;;;;1999.90;999.90;;;18.40;99.90;;;;;;4999354;28;20209;-66
2022/10/18 12:14:28;;;;;;;1999.90;999.90;;;18.00;99.90;;;;;;5021342;28;20521;-66